sensor_id;sensor_type;location;lat;lon;timestamp;P1;durP1;ratioP1;P2;durP2;ratioP2
26598;SDS011;14240;51.064;16.612;2023-06-19T00:00:53;14.98;;;10.85;;
26598;SDS011;14240;51.064;16.612;2023-06-19T00:03:19;18.42;;;11.15;;
26598;SDS011;14240;51.064;16.612;2023-06-19T00:05:45;15.00;;;10.38;;
26598;SDS011;14240;51.064;16.612;2023-06-19T00:08:11;15.70;;;10.82;;
26598;SDS011;14240;51.064;16.612;2023-06-19T00:10:37;12.90;;;10.63;;
26598;SDS011;14240;51.064;16.612;2023-06-19T00:13:02;15.05;;;12.35;;
26598;SDS011;14240;51.064;16.612;2023-06-19T00:15:28;13.68;;;11.25;;
26598;SDS011;14240;51.064;16.612;2023-06-19T00:17:54;17.42;;;12.30;;
26598;SDS011;14240;51.064;16.612;2023-06-19T00:20:21;16.25;;;11.32;;
26598;SDS011;14240;51.064;16.612;2023-06-19T00:22:48;17.92;;;13.15;;
26598;SDS011;14240;51.064;16.612;2023-06-19T00:25:17;19.60;;;14.23;;
26598;SDS011;14240;51.064;16.612;2023-06-19T00:27:44;17.95;;;12.30;;
26598;SDS011;14240;51.064;16.612;2023-06-19T00:30:10;20.80;;;12.82;;
26598;SDS011;14240;51.064;16.612;2023-06-19T00:32:36;17.73;;;12.63;;
26598;SDS011;14240;51.064;16.612;2023-06-19T00:35:12;18.75;;;11.57;;
26598;SDS011;14240;51.064;16.612;2023-06-19T00:37:42;17.30;;;11.35;;
26598;SDS011;14240;51.064;16.612;2023-06-19T00:40:27;21.75;;;11.30;;
26598;SDS011;14240;51.064;16.612;2023-06-19T00:42:54;18.98;;;12.25;;
26598;SDS011;14240;51.064;16.612;2023-06-19T00:45:21;16.42;;;11.85;;
26598;SDS011;14240;51.064;16.612;2023-06-19T00:47:46;18.58;;;11.77;;
26598;SDS011;14240;51.064;16.612;2023-06-19T00:50:12;19.27;;;11.65;;
26598;SDS011;14240;51.064;16.612;2023-06-19T00:52:38;16.30;;;10.98;;
26598;SDS011;14240;51.064;16.612;2023-06-19T00:55:05;16.42;;;11.07;;
26598;SDS011;14240;51.064;16.612;2023-06-19T00:57:32;20.58;;;11.43;;
26598;SDS011;14240;51.064;16.612;2023-06-19T00:59:58;20.73;;;11.57;;
26598;SDS011;14240;51.064;16.612;2023-06-19T01:02:24;16.75;;;11.23;;
26598;SDS011;14240;51.064;16.612;2023-06-19T01:04:51;20.03;;;11.93;;
26598;SDS011;14240;51.064;16.612;2023-06-19T01:07:18;17.17;;;11.43;;
26598;SDS011;14240;51.064;16.612;2023-06-19T01:09:58;21.33;;;11.53;;
26598;SDS011;14240;51.064;16.612;2023-06-19T01:13:12;15.52;;;10.57;;
26598;SDS011;14240;51.064;16.612;2023-06-19T01:17:53;20.27;;;12.45;;
26598;SDS011;14240;51.064;16.612;2023-06-19T01:22:45;18.05;;;11.68;;
26598;SDS011;14240;51.064;16.612;2023-06-19T01:25:11;16.33;;;11.55;;
26598;SDS011;14240;51.064;16.612;2023-06-19T01:27:40;20.95;;;13.43;;
26598;SDS011;14240;51.064;16.612;2023-06-19T01:32:38;16.63;;;12.95;;
26598;SDS011;14240;51.064;16.612;2023-06-19T01:35:23;20.92;;;13.05;;
26598;SDS011;14240;51.064;16.612;2023-06-19T01:37:52;19.83;;;13.13;;
26598;SDS011;14240;51.064;16.612;2023-06-19T01:40:19;21.75;;;14.18;;
26598;SDS011;14240;51.064;16.612;2023-06-19T01:42:51;18.35;;;12.43;;
26598;SDS011;14240;51.064;16.612;2023-06-19T01:45:17;17.70;;;12.40;;
26598;SDS011;14240;51.064;16.612;2023-06-19T01:47:43;18.60;;;11.40;;
26598;SDS011;14240;51.064;16.612;2023-06-19T01:50:10;19.65;;;13.05;;
26598;SDS011;14240;51.064;16.612;2023-06-19T01:52:37;21.42;;;13.68;;
26598;SDS011;14240;51.064;16.612;2023-06-19T01:55:03;18.85;;;12.75;;
26598;SDS011;14240;51.064;16.612;2023-06-19T01:57:30;30.02;;;13.75;;
26598;SDS011;14240;51.064;16.612;2023-06-19T01:59:56;23.73;;;13.95;;
26598;SDS011;14240;51.064;16.612;2023-06-19T02:02:22;18.40;;;11.90;;
26598;SDS011;14240;51.064;16.612;2023-06-19T02:04:47;24.60;;;13.80;;
26598;SDS011;14240;51.064;16.612;2023-06-19T02:07:13;23.98;;;12.95;;
26598;SDS011;14240;51.064;16.612;2023-06-19T02:09:39;20.88;;;11.18;;
26598;SDS011;14240;51.064;16.612;2023-06-19T02:12:06;19.10;;;13.07;;
26598;SDS011;14240;51.064;16.612;2023-06-19T02:14:33;24.83;;;12.40;;
26598;SDS011;14240;51.064;16.612;2023-06-19T02:16:58;18.77;;;12.35;;
26598;SDS011;14240;51.064;16.612;2023-06-19T02:19:24;30.98;;;13.80;;
26598;SDS011;14240;51.064;16.612;2023-06-19T02:21:50;23.00;;;12.90;;
26598;SDS011;14240;51.064;16.612;2023-06-19T02:24:15;21.40;;;12.27;;
26598;SDS011;14240;51.064;16.612;2023-06-19T02:26:41;20.55;;;12.82;;
26598;SDS011;14240;51.064;16.612;2023-06-19T02:29:09;23.50;;;13.68;;
26598;SDS011;14240;51.064;16.612;2023-06-19T02:31:35;23.55;;;13.65;;
26598;SDS011;14240;51.064;16.612;2023-06-19T02:34:00;21.58;;;12.43;;
26598;SDS011;14240;51.064;16.612;2023-06-19T02:36:26;24.10;;;12.73;;
26598;SDS011;14240;51.064;16.612;2023-06-19T02:38:52;24.20;;;12.57;;
26598;SDS011;14240;51.064;16.612;2023-06-19T02:41:18;20.13;;;12.40;;
26598;SDS011;14240;51.064;16.612;2023-06-19T02:43:44;31.38;;;12.57;;
26598;SDS011;14240;51.064;16.612;2023-06-19T02:46:14;25.88;;;13.50;;
26598;SDS011;14240;51.064;16.612;2023-06-19T02:48:40;27.67;;;14.43;;
26598;SDS011;14240;51.064;16.612;2023-06-19T02:51:05;30.08;;;14.57;;
26598;SDS011;14240;51.064;16.612;2023-06-19T02:53:31;22.58;;;13.32;;
26598;SDS011;14240;51.064;16.612;2023-06-19T02:55:57;27.23;;;12.77;;
26598;SDS011;14240;51.064;16.612;2023-06-19T02:58:23;29.20;;;13.88;;
26598;SDS011;14240;51.064;16.612;2023-06-19T03:00:49;30.48;;;13.07;;
26598;SDS011;14240;51.064;16.612;2023-06-19T03:03:14;22.33;;;12.93;;
26598;SDS011;14240;51.064;16.612;2023-06-19T03:05:40;27.40;;;13.32;;
26598;SDS011;14240;51.064;16.612;2023-06-19T03:08:06;20.55;;;13.27;;
26598;SDS011;14240;51.064;16.612;2023-06-19T03:10:32;25.77;;;12.98;;
26598;SDS011;14240;51.064;16.612;2023-06-19T03:12:57;19.90;;;12.40;;
26598;SDS011;14240;51.064;16.612;2023-06-19T03:15:24;30.60;;;13.35;;
26598;SDS011;14240;51.064;16.612;2023-06-19T03:17:50;26.08;;;13.10;;
26598;SDS011;14240;51.064;16.612;2023-06-19T03:20:17;19.83;;;12.63;;
26598;SDS011;14240;51.064;16.612;2023-06-19T03:22:42;25.52;;;13.77;;
26598;SDS011;14240;51.064;16.612;2023-06-19T03:25:08;23.05;;;14.98;;
26598;SDS011;14240;51.064;16.612;2023-06-19T03:27:34;20.63;;;13.73;;
26598;SDS011;14240;51.064;16.612;2023-06-19T03:30:00;22.92;;;14.27;;
26598;SDS011;14240;51.064;16.612;2023-06-19T03:32:26;25.55;;;14.77;;
26598;SDS011;14240;51.064;16.612;2023-06-19T03:34:51;22.15;;;14.82;;
26598;SDS011;14240;51.064;16.612;2023-06-19T03:37:17;26.98;;;14.95;;
26598;SDS011;14240;51.064;16.612;2023-06-19T03:39:43;22.83;;;14.27;;
26598;SDS011;14240;51.064;16.612;2023-06-19T03:42:08;25.30;;;16.00;;
26598;SDS011;14240;51.064;16.612;2023-06-19T03:44:34;26.05;;;13.63;;
26598;SDS011;14240;51.064;16.612;2023-06-19T03:47:00;23.10;;;13.15;;
26598;SDS011;14240;51.064;16.612;2023-06-19T03:49:26;22.88;;;13.75;;
26598;SDS011;14240;51.064;16.612;2023-06-19T03:51:51;24.45;;;13.50;;
26598;SDS011;14240;51.064;16.612;2023-06-19T03:54:19;27.73;;;15.45;;
26598;SDS011;14240;51.064;16.612;2023-06-19T03:56:45;23.45;;;14.43;;
26598;SDS011;14240;51.064;16.612;2023-06-19T03:59:11;25.65;;;13.45;;
26598;SDS011;14240;51.064;16.612;2023-06-19T04:01:37;26.48;;;12.90;;
26598;SDS011;14240;51.064;16.612;2023-06-19T04:04:02;21.70;;;12.50;;
26598;SDS011;14240;51.064;16.612;2023-06-19T04:06:28;21.90;;;13.05;;
26598;SDS011;14240;51.064;16.612;2023-06-19T04:08:54;23.02;;;13.35;;
26598;SDS011;14240;51.064;16.612;2023-06-19T04:11:19;24.92;;;12.02;;
26598;SDS011;14240;51.064;16.612;2023-06-19T04:13:45;28.05;;;12.82;;
26598;SDS011;14240;51.064;16.612;2023-06-19T04:16:12;23.45;;;13.00;;
26598;SDS011;14240;51.064;16.612;2023-06-19T04:18:38;23.20;;;14.15;;
26598;SDS011;14240;51.064;16.612;2023-06-19T04:21:03;27.38;;;13.77;;
26598;SDS011;14240;51.064;16.612;2023-06-19T04:23:29;30.50;;;13.55;;
26598;SDS011;14240;51.064;16.612;2023-06-19T04:25:55;27.77;;;14.15;;
26598;SDS011;14240;51.064;16.612;2023-06-19T04:28:20;21.65;;;14.07;;
26598;SDS011;14240;51.064;16.612;2023-06-19T04:30:46;23.63;;;13.65;;
26598;SDS011;14240;51.064;16.612;2023-06-19T04:33:12;28.85;;;12.95;;
26598;SDS011;14240;51.064;16.612;2023-06-19T04:35:37;29.75;;;14.57;;
26598;SDS011;14240;51.064;16.612;2023-06-19T04:38:08;23.70;;;12.70;;
26598;SDS011;14240;51.064;16.612;2023-06-19T04:40:34;25.17;;;12.00;;
26598;SDS011;14240;51.064;16.612;2023-06-19T04:43:00;19.58;;;11.07;;
26598;SDS011;14240;51.064;16.612;2023-06-19T04:45:27;18.60;;;11.43;;
26598;SDS011;14240;51.064;16.612;2023-06-19T04:47:53;20.33;;;11.07;;
26598;SDS011;14240;51.064;16.612;2023-06-19T04:50:19;21.08;;;12.85;;
26598;SDS011;14240;51.064;16.612;2023-06-19T04:52:45;26.50;;;12.50;;
26598;SDS011;14240;51.064;16.612;2023-06-19T04:55:12;23.95;;;13.25;;
26598;SDS011;14240;51.064;16.612;2023-06-19T04:57:38;20.42;;;12.13;;
26598;SDS011;14240;51.064;16.612;2023-06-19T05:00:04;20.23;;;12.23;;
26598;SDS011;14240;51.064;16.612;2023-06-19T05:04:58;19.48;;;11.00;;
26598;SDS011;14240;51.064;16.612;2023-06-19T05:07:28;19.08;;;12.02;;
26598;SDS011;14240;51.064;16.612;2023-06-19T05:09:58;21.13;;;11.77;;
26598;SDS011;14240;51.064;16.612;2023-06-19T05:12:24;17.30;;;11.82;;
26598;SDS011;14240;51.064;16.612;2023-06-19T05:14:50;19.60;;;12.05;;
26598;SDS011;14240;51.064;16.612;2023-06-19T05:17:16;18.67;;;11.68;;
26598;SDS011;14240;51.064;16.612;2023-06-19T05:19:41;17.55;;;10.95;;
26598;SDS011;14240;51.064;16.612;2023-06-19T05:22:07;21.63;;;10.77;;
26598;SDS011;14240;51.064;16.612;2023-06-19T05:24:33;21.05;;;11.85;;
26598;SDS011;14240;51.064;16.612;2023-06-19T05:26:58;18.85;;;11.50;;
26598;SDS011;14240;51.064;16.612;2023-06-19T05:29:24;24.02;;;11.40;;
26598;SDS011;14240;51.064;16.612;2023-06-19T05:31:50;15.23;;;11.32;;
26598;SDS011;14240;51.064;16.612;2023-06-19T05:34:16;20.13;;;12.40;;
26598;SDS011;14240;51.064;16.612;2023-06-19T05:36:42;19.77;;;12.23;;
26598;SDS011;14240;51.064;16.612;2023-06-19T05:41:35;18.42;;;13.63;;
26598;SDS011;14240;51.064;16.612;2023-06-19T05:44:01;20.25;;;11.50;;
26598;SDS011;14240;51.064;16.612;2023-06-19T05:46:27;17.15;;;11.30;;
26598;SDS011;14240;51.064;16.612;2023-06-19T05:48:52;14.65;;;11.88;;
26598;SDS011;14240;51.064;16.612;2023-06-19T05:51:19;18.17;;;11.60;;
26598;SDS011;14240;51.064;16.612;2023-06-19T05:53:45;17.50;;;12.38;;
26598;SDS011;14240;51.064;16.612;2023-06-19T05:56:11;17.67;;;11.82;;
26598;SDS011;14240;51.064;16.612;2023-06-19T05:58:37;15.98;;;11.93;;
26598;SDS011;14240;51.064;16.612;2023-06-19T06:01:04;14.88;;;10.60;;
26598;SDS011;14240;51.064;16.612;2023-06-19T06:03:30;15.60;;;10.15;;
26598;SDS011;14240;51.064;16.612;2023-06-19T06:05:56;16.23;;;10.77;;
26598;SDS011;14240;51.064;16.612;2023-06-19T06:08:28;17.90;;;11.20;;
26598;SDS011;14240;51.064;16.612;2023-06-19T06:10:54;16.83;;;11.77;;
26598;SDS011;14240;51.064;16.612;2023-06-19T06:13:20;17.08;;;11.95;;
26598;SDS011;14240;51.064;16.612;2023-06-19T06:15:46;19.90;;;10.50;;
26598;SDS011;14240;51.064;16.612;2023-06-19T06:18:11;16.88;;;13.05;;
26598;SDS011;14240;51.064;16.612;2023-06-19T06:20:37;15.68;;;10.82;;
26598;SDS011;14240;51.064;16.612;2023-06-19T06:23:02;13.73;;;10.52;;
26598;SDS011;14240;51.064;16.612;2023-06-19T06:25:28;13.38;;;8.77;;
26598;SDS011;14240;51.064;16.612;2023-06-19T06:27:54;13.60;;;9.05;;
26598;SDS011;14240;51.064;16.612;2023-06-19T06:30:20;12.50;;;9.27;;
26598;SDS011;14240;51.064;16.612;2023-06-19T06:32:46;12.75;;;8.57;;
26598;SDS011;14240;51.064;16.612;2023-06-19T06:35:12;17.15;;;9.40;;
26598;SDS011;14240;51.064;16.612;2023-06-19T06:37:38;11.38;;;8.82;;
26598;SDS011;14240;51.064;16.612;2023-06-19T06:40:05;31.98;;;10.27;;
26598;SDS011;14240;51.064;16.612;2023-06-19T06:42:36;13.80;;;8.60;;
26598;SDS011;14240;51.064;16.612;2023-06-19T06:45:02;14.48;;;8.15;;
26598;SDS011;14240;51.064;16.612;2023-06-19T06:47:28;10.20;;;8.47;;
26598;SDS011;14240;51.064;16.612;2023-06-19T06:49:54;13.70;;;7.85;;
26598;SDS011;14240;51.064;16.612;2023-06-19T06:52:20;10.93;;;7.68;;
26598;SDS011;14240;51.064;16.612;2023-06-19T06:54:45;14.00;;;8.38;;
26598;SDS011;14240;51.064;16.612;2023-06-19T06:57:11;14.90;;;8.45;;
26598;SDS011;14240;51.064;16.612;2023-06-19T06:59:37;14.60;;;8.10;;
26598;SDS011;14240;51.064;16.612;2023-06-19T07:02:02;15.07;;;7.88;;
26598;SDS011;14240;51.064;16.612;2023-06-19T07:04:28;11.18;;;7.63;;
26598;SDS011;14240;51.064;16.612;2023-06-19T07:06:54;8.82;;;6.53;;
26598;SDS011;14240;51.064;16.612;2023-06-19T07:09:20;9.85;;;7.03;;
26598;SDS011;14240;51.064;16.612;2023-06-19T07:11:48;8.65;;;7.32;;
26598;SDS011;14240;51.064;16.612;2023-06-19T07:14:14;9.93;;;7.18;;
26598;SDS011;14240;51.064;16.612;2023-06-19T07:16:43;8.15;;;7.10;;
26598;SDS011;14240;51.064;16.612;2023-06-19T07:19:10;9.27;;;7.00;;
26598;SDS011;14240;51.064;16.612;2023-06-19T07:21:36;10.95;;;7.13;;
26598;SDS011;14240;51.064;16.612;2023-06-19T07:24:03;10.27;;;6.90;;
26598;SDS011;14240;51.064;16.612;2023-06-19T07:26:30;13.02;;;7.13;;
26598;SDS011;14240;51.064;16.612;2023-06-19T07:28:56;11.85;;;6.93;;
26598;SDS011;14240;51.064;16.612;2023-06-19T07:31:21;8.98;;;7.00;;
26598;SDS011;14240;51.064;16.612;2023-06-19T07:33:47;13.30;;;6.68;;
26598;SDS011;14240;51.064;16.612;2023-06-19T07:36:13;9.45;;;6.70;;
26598;SDS011;14240;51.064;16.612;2023-06-19T07:38:42;7.00;;;6.30;;
26598;SDS011;14240;51.064;16.612;2023-06-19T07:41:09;9.73;;;6.03;;
26598;SDS011;14240;51.064;16.612;2023-06-19T07:43:36;8.60;;;7.22;;
26598;SDS011;14240;51.064;16.612;2023-06-19T07:46:02;7.78;;;6.65;;
26598;SDS011;14240;51.064;16.612;2023-06-19T07:48:28;6.60;;;5.65;;
26598;SDS011;14240;51.064;16.612;2023-06-19T07:50:54;10.48;;;6.47;;
26598;SDS011;14240;51.064;16.612;2023-06-19T07:53:20;8.00;;;6.45;;
26598;SDS011;14240;51.064;16.612;2023-06-19T07:55:46;12.93;;;6.68;;
26598;SDS011;14240;51.064;16.612;2023-06-19T07:58:12;9.98;;;6.15;;
26598;SDS011;14240;51.064;16.612;2023-06-19T08:00:38;7.50;;;6.15;;
26598;SDS011;14240;51.064;16.612;2023-06-19T08:03:04;8.95;;;6.43;;
26598;SDS011;14240;51.064;16.612;2023-06-19T08:05:29;7.43;;;6.10;;
26598;SDS011;14240;51.064;16.612;2023-06-19T08:07:56;8.05;;;6.15;;
26598;SDS011;14240;51.064;16.612;2023-06-19T08:10:22;10.07;;;6.00;;
26598;SDS011;14240;51.064;16.612;2023-06-19T08:12:47;12.07;;;6.32;;
26598;SDS011;14240;51.064;16.612;2023-06-19T08:15:13;10.52;;;7.10;;
26598;SDS011;14240;51.064;16.612;2023-06-19T08:17:39;9.15;;;6.47;;
26598;SDS011;14240;51.064;16.612;2023-06-19T08:20:06;7.90;;;6.28;;
26598;SDS011;14240;51.064;16.612;2023-06-19T08:22:32;8.85;;;6.93;;
26598;SDS011;14240;51.064;16.612;2023-06-19T08:24:58;7.93;;;6.20;;
26598;SDS011;14240;51.064;16.612;2023-06-19T08:27:24;7.20;;;6.22;;
26598;SDS011;14240;51.064;16.612;2023-06-19T08:29:49;14.02;;;6.80;;
26598;SDS011;14240;51.064;16.612;2023-06-19T08:32:15;8.27;;;6.03;;
26598;SDS011;14240;51.064;16.612;2023-06-19T08:34:41;7.15;;;5.38;;
26598;SDS011;14240;51.064;16.612;2023-06-19T08:37:07;7.43;;;5.82;;
26598;SDS011;14240;51.064;16.612;2023-06-19T08:39:33;10.18;;;6.07;;
26598;SDS011;14240;51.064;16.612;2023-06-19T08:42:03;8.63;;;6.43;;
26598;SDS011;14240;51.064;16.612;2023-06-19T08:44:29;8.15;;;6.30;;
26598;SDS011;14240;51.064;16.612;2023-06-19T08:46:55;5.90;;;5.20;;
26598;SDS011;14240;51.064;16.612;2023-06-19T08:51:48;6.72;;;5.32;;
26598;SDS011;14240;51.064;16.612;2023-06-19T08:54:14;10.90;;;6.05;;
26598;SDS011;14240;51.064;16.612;2023-06-19T08:56:39;7.40;;;5.88;;
26598;SDS011;14240;51.064;16.612;2023-06-19T08:59:15;9.95;;;5.28;;
26598;SDS011;14240;51.064;16.612;2023-06-19T09:01:52;7.75;;;5.22;;
26598;SDS011;14240;51.064;16.612;2023-06-19T09:04:23;5.65;;;5.05;;
26598;SDS011;14240;51.064;16.612;2023-06-19T09:09:24;7.30;;;5.43;;
26598;SDS011;14240;51.064;16.612;2023-06-19T09:12:06;5.82;;;4.97;;
26598;SDS011;14240;51.064;16.612;2023-06-19T09:14:35;7.03;;;5.10;;
26598;SDS011;14240;51.064;16.612;2023-06-19T09:17:18;11.55;;;5.78;;
26598;SDS011;14240;51.064;16.612;2023-06-19T09:19:51;5.40;;;4.90;;
26598;SDS011;14240;51.064;16.612;2023-06-19T09:22:20;6.65;;;5.50;;
26598;SDS011;14240;51.064;16.612;2023-06-19T09:24:46;7.00;;;5.95;;
26598;SDS011;14240;51.064;16.612;2023-06-19T09:27:14;9.48;;;5.95;;
26598;SDS011;14240;51.064;16.612;2023-06-19T09:29:44;6.45;;;5.55;;
26598;SDS011;14240;51.064;16.612;2023-06-19T09:32:14;6.97;;;5.78;;
26598;SDS011;14240;51.064;16.612;2023-06-19T09:34:44;7.10;;;5.82;;
26598;SDS011;14240;51.064;16.612;2023-06-19T09:37:10;8.18;;;5.60;;
26598;SDS011;14240;51.064;16.612;2023-06-19T09:39:36;7.82;;;5.75;;
26598;SDS011;14240;51.064;16.612;2023-06-19T09:42:03;6.65;;;5.45;;
26598;SDS011;14240;51.064;16.612;2023-06-19T09:44:36;9.05;;;6.53;;
26598;SDS011;14240;51.064;16.612;2023-06-19T09:47:07;7.05;;;5.80;;
26598;SDS011;14240;51.064;16.612;2023-06-19T09:49:42;8.85;;;6.10;;
26598;SDS011;14240;51.064;16.612;2023-06-19T09:52:13;7.22;;;5.63;;
26598;SDS011;14240;51.064;16.612;2023-06-19T09:54:39;6.78;;;6.10;;
26598;SDS011;14240;51.064;16.612;2023-06-19T09:57:08;6.25;;;5.65;;
26598;SDS011;14240;51.064;16.612;2023-06-19T09:59:36;7.05;;;6.35;;
26598;SDS011;14240;51.064;16.612;2023-06-19T10:02:05;8.55;;;5.90;;
26598;SDS011;14240;51.064;16.612;2023-06-19T10:04:41;6.83;;;5.17;;
26598;SDS011;14240;51.064;16.612;2023-06-19T10:07:20;6.30;;;5.70;;
26598;SDS011;14240;51.064;16.612;2023-06-19T10:12:44;7.22;;;4.93;;
26598;SDS011;14240;51.064;16.612;2023-06-19T10:15:12;6.47;;;5.63;;
26598;SDS011;14240;51.064;16.612;2023-06-19T10:20:25;6.63;;;5.32;;
26598;SDS011;14240;51.064;16.612;2023-06-19T10:22:56;6.53;;;5.72;;
26598;SDS011;14240;51.064;16.612;2023-06-19T10:25:27;8.25;;;5.75;;
26598;SDS011;14240;51.064;16.612;2023-06-19T10:27:54;6.45;;;5.40;;
26598;SDS011;14240;51.064;16.612;2023-06-19T10:30:20;5.43;;;4.93;;
26598;SDS011;14240;51.064;16.612;2023-06-19T10:32:47;5.15;;;4.65;;
26598;SDS011;14240;51.064;16.612;2023-06-19T10:35:14;5.10;;;4.60;;
26598;SDS011;14240;51.064;16.612;2023-06-19T10:37:41;7.28;;;5.18;;
26598;SDS011;14240;51.064;16.612;2023-06-19T10:40:07;5.55;;;5.00;;
26598;SDS011;14240;51.064;16.612;2023-06-19T10:45:08;6.63;;;6.03;;
26598;SDS011;14240;51.064;16.612;2023-06-19T10:47:35;7.07;;;5.25;;
26598;SDS011;14240;51.064;16.612;2023-06-19T10:50:04;5.88;;;5.38;;
26598;SDS011;14240;51.064;16.612;2023-06-19T10:52:30;6.07;;;5.10;;
26598;SDS011;14240;51.064;16.612;2023-06-19T10:54:56;6.78;;;4.93;;
26598;SDS011;14240;51.064;16.612;2023-06-19T10:57:26;5.38;;;4.88;;
26598;SDS011;14240;51.064;16.612;2023-06-19T10:59:56;6.60;;;5.95;;
26598;SDS011;14240;51.064;16.612;2023-06-19T11:02:23;6.63;;;5.05;;
26598;SDS011;14240;51.064;16.612;2023-06-19T11:04:53;7.10;;;5.55;;
26598;SDS011;14240;51.064;16.612;2023-06-19T11:07:20;6.80;;;6.10;;
26598;SDS011;14240;51.064;16.612;2023-06-19T11:09:47;6.03;;;5.28;;
26598;SDS011;14240;51.064;16.612;2023-06-19T11:12:18;7.82;;;5.40;;
26598;SDS011;14240;51.064;16.612;2023-06-19T11:14:45;7.90;;;5.57;;
26598;SDS011;14240;51.064;16.612;2023-06-19T11:17:11;6.78;;;5.72;;
26598;SDS011;14240;51.064;16.612;2023-06-19T11:19:37;7.30;;;5.97;;
26598;SDS011;14240;51.064;16.612;2023-06-19T11:22:05;9.57;;;5.93;;
26598;SDS011;14240;51.064;16.612;2023-06-19T11:24:32;5.95;;;5.32;;
26598;SDS011;14240;51.064;16.612;2023-06-19T11:26:58;6.68;;;5.88;;
26598;SDS011;14240;51.064;16.612;2023-06-19T11:32:13;9.00;;;6.22;;
26598;SDS011;14240;51.064;16.612;2023-06-19T11:34:40;7.15;;;6.00;;
26598;SDS011;14240;51.064;16.612;2023-06-19T11:37:16;6.25;;;5.70;;
26598;SDS011;14240;51.064;16.612;2023-06-19T11:39:46;11.32;;;6.32;;
26598;SDS011;14240;51.064;16.612;2023-06-19T11:44:53;6.97;;;5.90;;
26598;SDS011;14240;51.064;16.612;2023-06-19T11:47:20;6.65;;;5.97;;
26598;SDS011;14240;51.064;16.612;2023-06-19T11:49:49;6.75;;;6.05;;
26598;SDS011;14240;51.064;16.612;2023-06-19T11:52:16;11.25;;;6.22;;
26598;SDS011;14240;51.064;16.612;2023-06-19T11:54:42;9.93;;;6.50;;
26598;SDS011;14240;51.064;16.612;2023-06-19T11:57:11;6.60;;;5.68;;
26598;SDS011;14240;51.064;16.612;2023-06-19T11:59:40;8.00;;;6.00;;
26598;SDS011;14240;51.064;16.612;2023-06-19T12:02:06;9.68;;;6.38;;
26598;SDS011;14240;51.064;16.612;2023-06-19T12:04:34;10.05;;;6.20;;
26598;SDS011;14240;51.064;16.612;2023-06-19T12:07:00;6.10;;;5.50;;
26598;SDS011;14240;51.064;16.612;2023-06-19T12:09:26;6.50;;;5.90;;
26598;SDS011;14240;51.064;16.612;2023-06-19T12:11:52;6.25;;;5.65;;
26598;SDS011;14240;51.064;16.612;2023-06-19T12:14:18;9.10;;;6.10;;
26598;SDS011;14240;51.064;16.612;2023-06-19T12:16:46;14.07;;;6.25;;
26598;SDS011;14240;51.064;16.612;2023-06-19T12:19:12;6.07;;;5.32;;
26598;SDS011;14240;51.064;16.612;2023-06-19T12:21:37;8.35;;;6.15;;
26598;SDS011;14240;51.064;16.612;2023-06-19T12:24:03;8.93;;;7.10;;
26598;SDS011;14240;51.064;16.612;2023-06-19T12:26:29;6.40;;;5.73;;
26598;SDS011;14240;51.064;16.612;2023-06-19T12:28:56;7.35;;;6.53;;
26598;SDS011;14240;51.064;16.612;2023-06-19T12:31:21;7.97;;;5.80;;
26598;SDS011;14240;51.064;16.612;2023-06-19T12:33:47;7.95;;;6.53;;
26598;SDS011;14240;51.064;16.612;2023-06-19T12:36:16;7.78;;;6.38;;
26598;SDS011;14240;51.064;16.612;2023-06-19T12:38:42;9.05;;;6.68;;
26598;SDS011;14240;51.064;16.612;2023-06-19T12:41:07;9.50;;;6.57;;
26598;SDS011;14240;51.064;16.612;2023-06-19T12:43:33;14.55;;;6.50;;
26598;SDS011;14240;51.064;16.612;2023-06-19T12:45:59;7.38;;;6.32;;
26598;SDS011;14240;51.064;16.612;2023-06-19T12:48:26;6.50;;;5.90;;
26598;SDS011;14240;51.064;16.612;2023-06-19T12:50:52;8.67;;;5.90;;
26598;SDS011;14240;51.064;16.612;2023-06-19T12:53:17;7.63;;;5.80;;
26598;SDS011;14240;51.064;16.612;2023-06-19T12:55:43;8.23;;;6.03;;
26598;SDS011;14240;51.064;16.612;2023-06-19T12:58:09;6.40;;;5.80;;
26598;SDS011;14240;51.064;16.612;2023-06-19T13:00:36;8.07;;;6.07;;
26598;SDS011;14240;51.064;16.612;2023-06-19T13:03:02;7.30;;;6.60;;
26598;SDS011;14240;51.064;16.612;2023-06-19T13:05:28;6.93;;;6.20;;
26598;SDS011;14240;51.064;16.612;2023-06-19T13:07:54;9.15;;;6.72;;
26598;SDS011;14240;51.064;16.612;2023-06-19T13:10:19;7.05;;;6.35;;
26598;SDS011;14240;51.064;16.612;2023-06-19T13:12:45;8.40;;;6.63;;
26598;SDS011;14240;51.064;16.612;2023-06-19T13:15:11;8.30;;;6.53;;
26598;SDS011;14240;51.064;16.612;2023-06-19T13:17:36;7.90;;;5.65;;
26598;SDS011;14240;51.064;16.612;2023-06-19T13:20:02;9.27;;;6.35;;
26598;SDS011;14240;51.064;16.612;2023-06-19T13:22:30;8.00;;;6.50;;
26598;SDS011;14240;51.064;16.612;2023-06-19T13:24:56;12.20;;;6.15;;
26598;SDS011;14240;51.064;16.612;2023-06-19T13:27:22;8.20;;;6.13;;
26598;SDS011;14240;51.064;16.612;2023-06-19T13:29:47;8.45;;;7.10;;
26598;SDS011;14240;51.064;16.612;2023-06-19T13:32:13;7.88;;;6.65;;
26598;SDS011;14240;51.064;16.612;2023-06-19T13:34:39;8.57;;;7.30;;
26598;SDS011;14240;51.064;16.612;2023-06-19T13:37:05;9.07;;;6.90;;
26598;SDS011;14240;51.064;16.612;2023-06-19T13:39:31;14.77;;;12.75;;
26598;SDS011;14240;51.064;16.612;2023-06-19T13:41:56;12.38;;;7.68;;
26598;SDS011;14240;51.064;16.612;2023-06-19T13:44:25;8.93;;;6.70;;
26598;SDS011;14240;51.064;16.612;2023-06-19T13:46:50;7.20;;;6.43;;
26598;SDS011;14240;51.064;16.612;2023-06-19T13:49:16;7.40;;;6.38;;
26598;SDS011;14240;51.064;16.612;2023-06-19T13:51:42;12.38;;;6.35;;
26598;SDS011;14240;51.064;16.612;2023-06-19T13:54:09;8.93;;;7.00;;
26598;SDS011;14240;51.064;16.612;2023-06-19T13:56:35;11.23;;;6.82;;
26598;SDS011;14240;51.064;16.612;2023-06-19T13:59:02;9.88;;;8.18;;
26598;SDS011;14240;51.064;16.612;2023-06-19T14:01:28;9.32;;;8.15;;
26598;SDS011;14240;51.064;16.612;2023-06-19T14:03:53;13.45;;;9.23;;
26598;SDS011;14240;51.064;16.612;2023-06-19T14:06:19;11.05;;;8.43;;
26598;SDS011;14240;51.064;16.612;2023-06-19T14:08:45;8.15;;;6.22;;
26598;SDS011;14240;51.064;16.612;2023-06-19T14:11:10;11.85;;;8.15;;
26598;SDS011;14240;51.064;16.612;2023-06-19T14:13:36;13.63;;;8.60;;
26598;SDS011;14240;51.064;16.612;2023-06-19T14:16:02;7.32;;;6.57;;
26598;SDS011;14240;51.064;16.612;2023-06-19T14:18:28;12.45;;;8.23;;
26598;SDS011;14240;51.064;16.612;2023-06-19T14:20:53;18.50;;;9.00;;
26598;SDS011;14240;51.064;16.612;2023-06-19T14:23:19;13.25;;;7.55;;
26598;SDS011;14240;51.064;16.612;2023-06-19T14:25:46;8.10;;;7.10;;
26598;SDS011;14240;51.064;16.612;2023-06-19T14:28:11;12.18;;;7.00;;
26598;SDS011;14240;51.064;16.612;2023-06-19T14:33:04;10.82;;;7.03;;
26598;SDS011;14240;51.064;16.612;2023-06-19T14:35:30;8.90;;;7.20;;
26598;SDS011;14240;51.064;16.612;2023-06-19T14:37:56;9.00;;;7.35;;
26598;SDS011;14240;51.064;16.612;2023-06-19T14:40:22;9.48;;;6.70;;
26598;SDS011;14240;51.064;16.612;2023-06-19T14:42:47;7.88;;;7.07;;
26598;SDS011;14240;51.064;16.612;2023-06-19T14:45:14;7.97;;;7.17;;
26598;SDS011;14240;51.064;16.612;2023-06-19T14:47:40;8.02;;;7.13;;
26598;SDS011;14240;51.064;16.612;2023-06-19T14:50:06;8.98;;;7.40;;
26598;SDS011;14240;51.064;16.612;2023-06-19T14:52:34;9.45;;;7.00;;